createdAt,value
2023-02-11T00:02:12.327Z,55.58
2023-02-11T00:04:38.909Z,53.85
2023-02-11T00:07:05.566Z,56.40
2023-02-11T00:09:32.179Z,56.35
2023-02-11T00:11:58.725Z,55.53
2023-02-11T00:14:25.327Z,56.17
2023-02-11T00:16:51.960Z,51.72
2023-02-11T00:19:18.621Z,57.10
2023-02-11T00:21:45.183Z,55.33
2023-02-11T00:24:11.713Z,54.10
2023-02-11T00:26:38.320Z,53.63
2023-02-11T00:29:05.628Z,53.40
2023-02-11T00:31:34.481Z,52.13
2023-02-11T00:34:01.188Z,52.47
2023-02-11T00:36:29.136Z,55.50
2023-02-11T00:38:57.530Z,55.80
2023-02-11T00:41:24.926Z,52.78
2023-02-11T00:43:52.442Z,54.47
2023-02-11T00:46:19.075Z,52.58
2023-02-11T00:48:45.825Z,55.45
2023-02-11T00:51:12.475Z,55.60
2023-02-11T00:53:39.611Z,54.78
2023-02-11T00:56:07.692Z,56.70
2023-02-11T00:58:34.828Z,51.38
2023-02-11T01:01:01.461Z,51.25
2023-02-11T01:03:28.220Z,51.40
2023-02-11T01:05:55.543Z,53.38
2023-02-11T01:08:22.296Z,51.33
2023-02-11T01:10:56.567Z,54.97
2023-02-11T01:13:23.917Z,56.65
2023-02-11T01:15:50.905Z,53.50
2023-02-11T01:18:17.687Z,54.60
2023-02-11T01:20:44.851Z,53.30
2023-02-11T01:23:11.482Z,55.42
2023-02-11T01:25:38.033Z,54.40
2023-02-11T01:28:05.161Z,52.47
2023-02-11T01:30:31.838Z,55.40
2023-02-11T01:32:58.389Z,58.13
2023-02-11T01:35:24.961Z,55.70
2023-02-11T01:37:51.520Z,52.20
2023-02-11T01:40:18.270Z,52.40
2023-02-11T01:42:44.893Z,54.70
2023-02-11T01:45:48.922Z,54.13
2023-02-11T01:48:20.859Z,53.58
2023-02-11T01:50:52.166Z,52.35
2023-02-11T01:53:37.981Z,55.85
2023-02-11T01:56:24.807Z,51.75
2023-02-11T01:58:53.328Z,48.92
2023-02-11T02:01:25.266Z,51.33
2023-02-11T02:03:57.198Z,55.30
2023-02-11T02:06:33.490Z,53.17
2023-02-11T02:09:32.050Z,53.30
2023-02-11T02:11:58.634Z,52.80
2023-02-11T02:14:26.611Z,51.03
2023-02-11T02:16:53.334Z,54.13
2023-02-11T02:19:38.357Z,51.67
2023-02-11T02:22:54.002Z,54.75
2023-02-11T02:26:03.915Z,51.05
2023-02-11T02:29:18.378Z,48.25
2023-02-11T02:32:03.432Z,51.45
2023-02-11T02:34:51.119Z,51.10
2023-02-11T02:37:20.651Z,50.05
2023-02-11T02:39:50.353Z,51.85
2023-02-11T02:42:19.667Z,53.15
2023-02-11T02:44:53.297Z,52.13
2023-02-11T02:47:19.863Z,53.75
2023-02-11T02:49:46.373Z,54.55
2023-02-11T02:52:18.336Z,52.28
2023-02-11T02:55:02.422Z,52.08
2023-02-11T02:57:38.255Z,51.17
2023-02-11T03:00:26.664Z,53.38
2023-02-11T03:03:10.137Z,51.13
2023-02-11T03:06:02.819Z,50.05
2023-02-11T03:08:44.106Z,53.15
2023-02-11T03:11:12.584Z,54.15
2023-02-11T03:13:41.125Z,56.60
2023-02-11T03:16:39.201Z,54.75
2023-02-11T03:19:12.813Z,54.45
2023-02-11T03:21:42.053Z,55.33
2023-02-11T03:24:14.971Z,52.08
2023-02-11T03:26:48.808Z,51.50
2023-02-11T03:29:37.562Z,53.22
2023-02-11T03:32:17.909Z,50.13
2023-02-11T03:34:57.795Z,51.35
2023-02-11T03:37:45.350Z,50.88
2023-02-11T03:40:22.751Z,50.80
2023-02-11T03:43:08.825Z,51.00
2023-02-11T03:45:37.870Z,53.42
2023-02-11T03:48:11.515Z,52.90
2023-02-11T03:50:40.793Z,54.42
2023-02-11T03:53:08.176Z,54.53
2023-02-11T03:55:38.705Z,55.55
2023-02-11T03:58:05.550Z,55.45
2023-02-11T04:00:34.805Z,53.55
2023-02-11T04:03:01.506Z,54.45
2023-02-11T04:05:28.270Z,54.97
2023-02-11T04:07:54.846Z,54.47
2023-02-11T04:10:22.128Z,55.67
2023-02-11T04:12:48.847Z,51.90
2023-02-11T04:15:15.564Z,52.72
2023-02-11T04:17:42.350Z,56.60
2023-02-11T04:20:09.544Z,54.85
2023-02-11T04:22:36.720Z,55.40
2023-02-11T04:25:04.612Z,55.72
2023-02-11T04:27:31.756Z,54.78
2023-02-11T04:29:58.358Z,56.17
2023-02-11T04:32:24.900Z,53.45
2023-02-11T04:34:52.024Z,52.05
2023-02-11T04:37:18.557Z,53.28
2023-02-11T04:39:45.097Z,52.83
2023-02-11T04:42:12.215Z,54.25
2023-02-11T04:44:38.785Z,53.70
2023-02-11T04:47:05.462Z,55.22
2023-02-11T04:49:31.967Z,55.45
2023-02-11T04:51:58.533Z,54.85
2023-02-11T04:54:25.117Z,57.58
2023-02-11T04:56:51.697Z,55.08
2023-02-11T04:59:18.203Z,53.80
2023-02-11T05:01:44.763Z,58.85
2023-02-11T05:04:13.253Z,56.95
2023-02-11T05:06:40.502Z,57.13
2023-02-11T05:09:07.160Z,55.05
2023-02-11T05:11:33.786Z,56.20
2023-02-11T05:14:00.431Z,57.90
2023-02-11T05:16:27.382Z,52.72
2023-02-11T05:18:55.733Z,54.47
2023-02-11T05:21:22.746Z,53.50
2023-02-11T05:23:49.355Z,53.90
2023-02-11T05:26:16.206Z,55.55
2023-02-11T05:28:43.614Z,55.13
2023-02-11T05:31:11.575Z,50.22
2023-02-11T05:33:38.448Z,56.38
2023-02-11T05:36:08.415Z,58.10
2023-02-11T05:38:36.302Z,53.42
2023-02-11T05:41:03.562Z,55.97
2023-02-11T05:43:30.471Z,55.05
2023-02-11T05:45:57.280Z,54.40
2023-02-11T05:48:23.920Z,52.53
2023-02-11T05:50:50.475Z,52.63
2023-02-11T05:53:17.282Z,56.22
2023-02-11T05:55:44.043Z,54.08
2023-02-11T05:58:10.742Z,54.25
2023-02-11T06:00:38.178Z,54.13
2023-02-11T06:03:05.450Z,56.00
2023-02-11T06:05:32.149Z,57.20
2023-02-11T06:07:58.803Z,56.00
2023-02-11T06:10:25.658Z,56.05
2023-02-11T06:12:52.198Z,54.15
2023-02-11T06:15:18.750Z,54.70
2023-02-11T06:17:45.325Z,51.92
2023-02-11T06:20:12.137Z,55.50
2023-02-11T06:22:38.699Z,52.88
2023-02-11T06:25:05.781Z,55.53
2023-02-11T06:27:32.483Z,57.42
2023-02-11T06:29:59.026Z,56.40
2023-02-11T06:32:45.500Z,55.30
2023-02-11T06:35:14.330Z,53.53
2023-02-11T06:37:41.971Z,54.40
2023-02-11T06:40:09.185Z,53.20
2023-02-11T06:42:36.273Z,52.88
2023-02-11T06:45:05.999Z,56.65
2023-02-11T06:47:32.667Z,53.75
2023-02-11T06:49:59.210Z,54.47
2023-02-11T06:52:25.763Z,54.15
2023-02-11T06:54:52.365Z,51.38
2023-02-11T06:57:19.001Z,53.03
2023-02-11T06:59:45.519Z,50.88
2023-02-11T07:02:12.312Z,54.20
2023-02-11T07:04:38.931Z,51.38
2023-02-11T07:07:05.545Z,52.58
2023-02-11T07:09:32.166Z,56.28
2023-02-11T07:11:58.760Z,56.70
2023-02-11T07:14:25.632Z,56.38
2023-02-11T07:16:52.165Z,54.92
2023-02-11T07:19:18.769Z,54.10
2023-02-11T07:21:45.360Z,55.63
2023-02-11T07:24:13.113Z,55.17
2023-02-11T07:26:40.123Z,55.17
2023-02-11T07:29:06.733Z,55.05
2023-02-11T07:31:33.523Z,58.05
2023-02-11T07:34:01.949Z,56.65
2023-02-11T07:36:30.011Z,53.60
2023-02-11T07:38:56.601Z,56.67
2023-02-11T07:41:24.286Z,54.33
2023-02-11T07:43:50.986Z,54.83
2023-02-11T07:46:20.845Z,57.45
2023-02-11T07:48:47.480Z,54.25
2023-02-11T07:51:19.842Z,53.20
2023-02-11T07:53:46.968Z,52.38
2023-02-11T07:56:15.102Z,53.58
2023-02-11T07:58:43.196Z,53.85
2023-02-11T08:01:16.539Z,53.42
2023-02-11T08:03:43.273Z,53.42
2023-02-11T08:06:15.647Z,53.40
2023-02-11T08:08:42.804Z,50.95
2023-02-11T08:11:12.620Z,52.60
2023-02-11T08:13:39.214Z,54.60
2023-02-11T08:16:07.025Z,54.92
2023-02-11T08:18:34.631Z,59.38
2023-02-11T08:21:09.573Z,58.30
2023-02-11T08:23:38.124Z,55.05
2023-02-11T08:26:06.433Z,52.83
2023-02-11T08:28:36.565Z,53.35
2023-02-11T08:31:11.999Z,51.45
2023-02-11T08:33:40.640Z,51.60
2023-02-11T08:36:12.591Z,51.88
2023-02-11T08:38:39.410Z,47.03
2023-02-11T08:41:06.611Z,50.83
2023-02-11T08:43:33.448Z,52.10
2023-02-11T08:46:02.200Z,52.42
2023-02-11T08:48:29.357Z,52.45
2023-02-11T08:50:56.683Z,53.33
2023-02-11T08:53:23.540Z,47.90
2023-02-11T08:55:52.217Z,48.40
2023-02-11T08:58:19.389Z,52.30
2023-02-11T09:00:46.830Z,50.38
2023-02-11T09:03:14.901Z,50.28
2023-02-11T09:05:46.881Z,48.08
2023-02-11T09:08:14.013Z,50.50
2023-02-11T09:10:40.718Z,50.13
2023-02-11T09:13:07.981Z,50.90
2023-02-11T09:15:35.354Z,52.65
2023-02-11T09:18:02.211Z,49.03
2023-02-11T09:20:28.888Z,50.92
2023-02-11T09:22:58.738Z,49.05
2023-02-11T09:25:25.760Z,48.45
2023-02-11T09:27:53.769Z,45.35
2023-02-11T09:30:21.115Z,45.38
2023-02-11T09:32:47.899Z,46.97
2023-02-11T09:35:14.532Z,47.20
2023-02-11T09:37:41.039Z,42.38
2023-02-11T09:40:08.046Z,39.40
2023-02-11T09:42:40.116Z,40.30
2023-02-11T09:45:16.632Z,44.55
2023-02-11T09:47:50.902Z,39.92
2023-02-11T09:50:29.661Z,38.78
2023-02-11T09:53:26.614Z,38.67
2023-02-11T09:55:56.492Z,40.95
2023-02-11T09:58:27.542Z,37.72
2023-02-11T10:01:14.566Z,39.47
2023-02-11T10:03:57.671Z,39.28
2023-02-11T10:06:54.205Z,35.65
2023-02-11T10:09:29.752Z,36.22
2023-02-11T10:12:13.701Z,35.70
2023-02-11T10:15:06.619Z,34.50
2023-02-11T10:17:58.440Z,31.25
2023-02-11T10:20:36.577Z,28.20
2023-02-11T10:23:15.422Z,30.73
2023-02-11T10:25:49.200Z,29.73
2023-02-11T10:28:18.849Z,28.30
2023-02-11T10:31:00.249Z,28.98
2023-02-11T10:33:33.097Z,28.40
2023-02-11T10:36:00.388Z,30.38
2023-02-11T10:38:27.824Z,27.90
2023-02-11T10:40:54.353Z,25.27
2023-02-11T10:43:26.213Z,23.52
2023-02-11T10:45:55.106Z,25.10
2023-02-11T10:48:42.249Z,22.52
2023-02-11T10:51:20.720Z,20.75
2023-02-11T10:54:13.871Z,22.90
2023-02-11T10:56:54.773Z,20.02
2023-02-11T10:59:31.430Z,19.30
2023-02-11T11:02:01.371Z,18.85
2023-02-11T11:04:31.080Z,18.90
2023-02-11T11:07:18.141Z,18.65
2023-02-11T11:09:48.073Z,18.58
2023-02-11T11:12:46.510Z,18.17
2023-02-11T11:15:24.890Z,17.83
2023-02-11T11:33:27.179Z,18.88
2023-02-11T11:36:02.953Z,17.25
2023-02-11T11:38:31.453Z,17.73
2023-02-11T11:41:34.368Z,17.48
2023-02-11T11:44:02.666Z,16.02
2023-02-11T11:46:36.505Z,15.85
2023-02-11T11:49:29.119Z,16.98
2023-02-11T11:52:37.535Z,19.27
2023-02-11T11:55:21.870Z,14.98
2023-02-11T11:57:49.235Z,16.17
2023-02-11T12:00:31.132Z,16.50
2023-02-11T12:03:19.734Z,15.38
2023-02-11T12:05:52.057Z,16.38
2023-02-11T12:08:39.456Z,15.30
2023-02-11T12:11:17.404Z,16.33
2023-02-11T12:13:58.447Z,17.45
2023-02-11T12:16:43.571Z,16.15
2023-02-11T12:19:32.066Z,17.27
2023-02-11T12:22:18.655Z,18.15
2023-02-11T12:25:09.620Z,17.23
2023-02-11T12:27:50.676Z,18.13
2023-02-11T12:30:39.992Z,16.73
2023-02-11T12:33:22.981Z,19.15
2023-02-11T12:36:15.116Z,18.13
2023-02-11T12:39:29.230Z,17.48
2023-02-11T12:42:17.376Z,18.50
2023-02-11T12:45:03.967Z,18.58
2023-02-11T12:47:53.930Z,19.97
2023-02-11T12:50:33.195Z,20.33
2023-02-11T12:53:05.445Z,19.67
2023-02-11T12:55:37.306Z,19.60
2023-02-11T12:58:06.301Z,19.90
2023-02-11T13:00:46.889Z,20.95
2023-02-11T13:03:24.332Z,21.98
2023-02-11T13:05:54.177Z,18.60
2023-02-11T13:08:37.292Z,18.98
2023-02-11T13:11:14.381Z,19.75
2023-02-11T13:13:55.985Z,19.60
2023-02-11T13:16:42.816Z,18.63
2023-02-11T13:19:27.981Z,17.30
2023-02-11T13:22:13.443Z,17.88
2023-02-11T13:25:03.673Z,19.10
2023-02-11T13:27:58.368Z,20.65
2023-02-11T13:30:31.286Z,18.73
2023-02-11T13:32:57.741Z,17.38
2023-02-11T13:37:57.766Z,19.90
2023-02-11T13:40:34.277Z,18.55
2023-02-11T13:43:04.049Z,18.95
2023-02-11T13:45:33.868Z,19.20
2023-02-11T13:48:05.014Z,18.95
2023-02-11T13:50:37.941Z,20.05
2023-02-11T13:53:08.035Z,19.73
2023-02-11T13:55:35.410Z,19.67
2023-02-11T13:58:07.721Z,19.38
2023-02-11T14:00:34.185Z,20.10
2023-02-11T14:06:28.757Z,18.95
2023-02-11T14:09:21.257Z,20.35
2023-02-11T14:11:55.300Z,22.42
2023-02-11T14:14:24.012Z,20.17
2023-02-11T14:16:59.928Z,19.83
2023-02-11T14:19:38.384Z,23.05
2023-02-11T14:22:08.038Z,23.02
2023-02-11T14:24:34.905Z,19.25
2023-02-11T14:27:10.876Z,19.83
2023-02-11T14:29:56.273Z,20.75
2023-02-11T14:32:31.653Z,20.20
2023-02-11T14:35:20.888Z,17.40
2023-02-11T14:38:02.573Z,18.52
2023-02-11T14:40:55.086Z,18.27
2023-02-11T14:43:29.631Z,18.08
2023-02-11T14:45:58.299Z,21.98
2023-02-11T14:48:31.768Z,19.75
2023-02-11T14:51:03.025Z,22.70
2023-02-11T14:53:33.363Z,17.30
2023-02-11T14:56:00.281Z,19.35
2023-02-11T14:58:32.047Z,18.23
2023-02-11T15:01:03.123Z,19.08
2023-02-11T15:03:35.797Z,18.88
2023-02-11T15:06:05.456Z,18.75
2023-02-11T15:08:34.954Z,18.75
2023-02-11T15:11:04.604Z,18.98
2023-02-11T15:13:32.914Z,18.35
2023-02-11T15:16:07.188Z,18.38
2023-02-11T15:18:39.046Z,17.92
2023-02-11T15:21:06.426Z,19.60
2023-02-11T15:23:32.970Z,18.83
2023-02-11T15:26:04.245Z,18.00
2023-02-11T15:28:33.512Z,18.80
2023-02-11T15:31:01.925Z,20.20
2023-02-11T15:33:32.291Z,19.52
2023-02-11T15:36:03.138Z,20.67
2023-02-11T15:38:30.525Z,19.80
2023-02-11T15:41:00.982Z,18.70
2023-02-11T15:43:45.541Z,16.75
2023-02-11T15:46:16.718Z,16.38
2023-02-11T15:48:47.251Z,16.65
2023-02-11T15:51:21.886Z,16.17
2023-02-11T15:53:56.700Z,16.88
2023-02-11T15:56:42.147Z,18.30
2023-02-11T15:59:30.648Z,18.33
2023-02-11T16:02:05.472Z,19.88
2023-02-11T16:04:32.262Z,18.65
2023-02-11T16:06:58.884Z,20.00
2023-02-11T16:09:35.245Z,20.20
2023-02-11T16:12:21.074Z,19.58
2023-02-11T16:14:47.575Z,22.63
2023-02-11T16:19:47.184Z,19.95
2023-02-11T16:22:20.254Z,22.10
2023-02-11T16:24:49.472Z,20.27
2023-02-11T16:27:34.870Z,20.35
2023-02-11T16:30:01.978Z,22.30
2023-02-11T16:32:30.942Z,23.05
2023-02-11T16:35:00.865Z,21.23
2023-02-11T16:37:28.194Z,23.75
2023-02-11T16:39:56.543Z,23.30
2023-02-11T16:42:23.556Z,66.55
2023-02-11T16:44:50.207Z,30.40
2023-02-11T16:47:24.356Z,26.25
2023-02-11T16:49:51.239Z,25.48
2023-02-11T16:52:19.229Z,21.25
2023-02-11T16:54:45.885Z,27.38
2023-02-11T16:57:15.895Z,22.75
2023-02-11T16:59:42.984Z,21.27
2023-02-11T17:02:16.868Z,23.20
2023-02-11T17:04:44.192Z,23.33
2023-02-11T17:07:10.784Z,20.73
2023-02-11T17:09:37.322Z,23.10
2023-02-11T17:12:04.012Z,22.33
2023-02-11T17:14:30.637Z,22.38
2023-02-11T17:16:57.446Z,23.02
2023-02-11T17:19:24.217Z,23.63
2023-02-11T17:21:52.768Z,20.52
2023-02-11T17:24:21.513Z,21.35
2023-02-11T17:26:49.023Z,24.13
2023-02-11T17:29:18.336Z,20.63
2023-02-11T17:31:45.015Z,23.02
2023-02-11T17:34:11.843Z,24.13
2023-02-11T17:36:39.232Z,22.05
2023-02-11T17:39:08.119Z,21.75
2023-02-11T17:41:36.954Z,22.65
2023-02-11T17:44:03.646Z,22.52
2023-02-11T17:46:30.315Z,23.15
2023-02-11T17:48:58.644Z,21.38
2023-02-11T17:51:28.079Z,21.95
2023-02-11T17:53:57.972Z,21.65
2023-02-11T17:56:24.747Z,23.60
2023-02-11T17:58:52.547Z,20.35
2023-02-11T18:01:20.310Z,21.73
2023-02-11T18:03:47.055Z,22.55
2023-02-11T18:06:13.730Z,22.15
2023-02-11T18:08:41.835Z,23.77
2023-02-11T18:11:12.578Z,21.25
2023-02-11T18:13:39.150Z,21.05
2023-02-11T18:16:06.306Z,22.00
2023-02-11T18:18:33.081Z,23.23
2023-02-11T18:21:01.459Z,21.25
2023-02-11T18:23:28.050Z,21.25
2023-02-11T18:25:54.610Z,22.67
2023-02-11T18:28:21.406Z,21.98
2023-02-11T18:30:48.130Z,23.73
2023-02-11T18:33:14.754Z,23.77
2023-02-11T18:35:42.286Z,22.73
2023-02-11T18:38:09.750Z,21.27
2023-02-11T18:40:40.306Z,21.65
2023-02-11T18:43:07.507Z,22.77
2023-02-11T18:45:34.255Z,21.35
2023-02-11T18:48:03.607Z,22.20
2023-02-11T18:50:30.147Z,22.40
2023-02-11T18:52:56.676Z,23.35
2023-02-11T18:55:25.768Z,24.33
2023-02-11T18:57:53.001Z,24.23
2023-02-11T19:00:23.307Z,24.80
2023-02-11T19:02:49.874Z,27.08
2023-02-11T19:05:16.530Z,27.80
2023-02-11T19:07:43.074Z,25.83
2023-02-11T19:10:10.253Z,25.15
2023-02-11T19:12:39.307Z,24.85
2023-02-11T19:15:07.842Z,26.38
2023-02-11T19:17:34.513Z,25.40
2023-02-11T19:20:01.029Z,25.15
2023-02-11T19:22:28.139Z,24.73
2023-02-11T19:24:54.796Z,22.58
2023-02-11T19:27:21.452Z,23.38
2023-02-11T19:29:48.134Z,26.80
2023-02-11T19:32:15.817Z,24.90
2023-02-11T19:34:42.622Z,25.42
2023-02-11T19:37:12.589Z,26.15
2023-02-11T19:39:40.086Z,24.52
2023-02-11T19:42:06.742Z,24.05
2023-02-11T19:44:33.366Z,25.10
2023-02-11T19:47:00.106Z,23.63
2023-02-11T19:49:28.330Z,24.70
2023-02-11T19:51:58.209Z,22.58
2023-02-11T19:54:31.934Z,23.58
2023-02-11T19:56:58.880Z,21.65
2023-02-11T19:59:25.519Z,24.15
2023-02-11T20:01:53.587Z,23.63
2023-02-11T20:04:20.195Z,24.38
2023-02-11T20:06:50.385Z,25.58
2023-02-11T20:09:16.970Z,26.33
2023-02-11T20:11:43.857Z,26.33
2023-02-11T20:14:14.731Z,24.88
2023-02-11T20:16:48.769Z,25.92
2023-02-11T20:19:18.893Z,24.27
2023-02-11T20:21:47.569Z,24.48
2023-02-11T20:24:15.846Z,26.73
2023-02-11T20:26:42.753Z,25.30
2023-02-11T20:29:09.741Z,24.80
2023-02-11T20:31:36.678Z,30.40
2023-02-11T20:34:03.748Z,28.13
2023-02-11T20:36:35.535Z,26.75
2023-02-11T20:39:04.830Z,25.75
2023-02-11T20:41:36.371Z,24.77
2023-02-11T20:44:06.369Z,24.15
2023-02-11T20:46:34.090Z,25.70
2023-02-11T20:49:01.750Z,26.15
2023-02-11T20:51:31.592Z,27.05
2023-02-11T20:53:58.338Z,24.48
2023-02-11T20:56:30.954Z,25.05
2023-02-11T20:58:59.855Z,24.77
2023-02-11T21:01:40.624Z,27.73
2023-02-11T21:04:13.524Z,30.63
2023-02-11T21:06:43.139Z,30.73
2023-02-11T21:09:13.116Z,26.35
2023-02-11T21:11:40.314Z,27.45
2023-02-11T21:14:07.261Z,26.23
2023-02-11T21:16:34.034Z,27.67
2023-02-11T21:19:01.176Z,26.63
2023-02-11T21:21:27.844Z,29.83
2023-02-11T21:23:56.070Z,26.40
2023-02-11T21:26:22.903Z,26.83
2023-02-11T21:28:50.068Z,27.83
2023-02-11T21:31:25.983Z,27.23
2023-02-11T21:33:54.744Z,28.42
2023-02-11T21:36:22.171Z,28.63
2023-02-11T21:38:49.931Z,27.67
2023-02-11T21:41:17.595Z,35.00
2023-02-11T21:43:44.515Z,33.55
2023-02-11T21:46:14.315Z,30.50
2023-02-11T21:48:40.926Z,29.40
2023-02-11T21:51:11.252Z,28.95
2023-02-11T21:53:38.850Z,26.85
2023-02-11T21:56:11.291Z,26.38
2023-02-11T21:58:37.894Z,26.65
2023-02-11T22:01:18.386Z,26.20
2023-02-11T22:03:46.470Z,25.40
2023-02-11T22:06:16.582Z,27.27
2023-02-11T22:08:43.192Z,24.88
2023-02-11T22:11:12.268Z,25.08
2023-02-11T22:13:40.179Z,25.63
2023-02-11T22:16:10.232Z,25.45
2023-02-11T22:18:37.650Z,26.77
2023-02-11T22:21:10.392Z,28.10
2023-02-11T22:23:38.421Z,28.00
2023-02-11T22:26:10.412Z,27.63
2023-02-11T22:28:38.989Z,29.17
2023-02-11T22:31:05.691Z,28.35
2023-02-11T22:33:32.831Z,27.05
2023-02-11T22:36:09.180Z,30.05
2023-02-11T22:38:35.858Z,29.42
2023-02-11T22:41:07.144Z,30.58
2023-02-11T22:43:33.791Z,32.00
2023-02-11T22:46:05.291Z,31.58
2023-02-11T22:48:32.333Z,30.40
2023-02-11T22:51:10.472Z,32.78
2023-02-11T22:53:37.207Z,30.27
2023-02-11T22:56:07.045Z,32.17
2023-02-11T22:58:35.751Z,34.20
2023-02-11T23:18:14.783Z,35.33
2023-02-11T23:20:43.194Z,35.92
2023-02-11T23:23:09.821Z,34.42
2023-02-11T23:25:42.487Z,38.47
2023-02-11T23:28:09.905Z,38.70
2023-02-11T23:30:36.702Z,38.58
2023-02-11T23:33:03.291Z,36.85
2023-02-11T23:35:29.902Z,35.22
2023-02-11T23:37:56.440Z,34.65
2023-02-11T23:40:23.026Z,33.10
2023-02-11T23:42:49.577Z,34.72
2023-02-11T23:45:16.170Z,34.97
2023-02-11T23:47:42.712Z,33.40
2023-02-11T23:50:09.889Z,34.83
2023-02-11T23:52:36.519Z,33.58
2023-02-11T23:55:03.682Z,34.50
2023-02-11T23:57:33.185Z,35.85
2023-02-11T23:59:59.723Z,33.78
